Sand Point, AK

7:27 PM AKDT on August 22, 2017 (GMT -0800)
Sand Point

Weather History for PASD - April, 2013

Change the Weather History Date:

Wednesday, April 3, 2013

  Actual Average Record
Temperature  
Mean Temperature 37 °F -  
Max Temperature 39 °F 35 °F 44 °F (2016)
Min Temperature 35 °F 28 °F 19 °F (2004)
Degree Days  
Heating Degree Days 28    
Moisture  
Dew Point 36 °F    
Average Humidity 93    
Maximum Humidity 100    
Minimum Humidity 87    
Precipitation  
Precipitation 0.00 in - - ()
Sea Level Pressure  
Sea Level Pressure 29.74 in    
Wind  
Wind Speed 5 mph (ESE)    
Max Wind Speed 10 mph    
Max Gust Speed 23 mph    
Visibility 8 miles    
Events      
Averages and records for this station are not official NWS values.
T = Trace of Precipitation, MM = Missing Value Source: NWS Daily Summary

Daily Weather History Graph

Daily Weather History Graph

Search for Another Location

Airport or City:

Trip Planner

Search our weather history database for the weather conditions in past years. The results will help you decide how hot, cold, wet, or windy it might be!

Date:

Astronomy

Apr. 03, 2013 Rise Set
Actual Time 8:07 AM AKDT 9:24 PM AKDT
Civil Twilight 7:29 AM AKDT 10:02 PM AKDT
Nautical Twilight 6:43 AM AKDT 10:48 PM AKDT
Astronomical Twilight 5:52 AM AKDT 11:40 PM AKDT
Moon 5:01 AM AKDT (4/3) 1:47 PM AKDT (4/3)
Length of Visible Light 14h 32m
Length of Day
13h 17m
Last Quarter, 43% of the Moon is Illuminated
Apr 3
Last Quarter
Apr 10
New
Apr 18
First Quarter
Apr 25
Full
May 2
Last Quarter

Hourly Weather History & Observations

Time (AKDT) Temp. Windchill Dew Point Humidity Pressure Visibility Wind Dir Wind Speed Gust Speed Precip Events Conditions
12:16 AM 35.6 °F 32.8 °F 33.8 °F 93% 29.79 in 10.0 mi ENE 3.5 mph - N/A   Mostly Cloudy
12:36 AM 37.4 °F 33.8 °F 33.8 °F 87% 29.79 in 10.0 mi East 4.6 mph - N/A   Overcast
12:56 AM 37.4 °F 31.4 °F 33.8 °F 87% 29.79 in 10.0 mi ESE 8.1 mph - N/A   Overcast
1:16 AM 37.4 °F 32.8 °F 33.8 °F 87% 29.79 in 10.0 mi SE 5.8 mph - N/A   Overcast
1:36 AM 37.4 °F 33.8 °F 33.8 °F 87% 29.78 in 10.0 mi SE 4.6 mph - N/A   Mostly Cloudy
1:56 AM 37.4 °F 32.1 °F 33.8 °F 87% 29.77 in 10.0 mi East 6.9 mph - N/A   Overcast
2:16 AM 37.4 °F 33.8 °F 35.6 °F 93% 29.76 in 10.0 mi SE 4.6 mph - N/A   Overcast
2:36 AM 37.4 °F 32.1 °F 35.6 °F 93% 29.76 in 10.0 mi East 6.9 mph - N/A   Overcast
2:56 AM 37.4 °F 32.1 °F 35.6 °F 93% 29.76 in 8.0 mi ESE 6.9 mph - N/A   Overcast
3:16 AM 37.4 °F - 35.6 °F 93% 29.76 in 8.0 mi Calm Calm - N/A   Overcast
3:36 AM 37.4 °F 32.8 °F 35.6 °F 93% 29.76 in 7.0 mi SE 5.8 mph - N/A   Overcast
3:56 AM 37.4 °F 32.1 °F 35.6 °F 93% 29.76 in 9.0 mi SE 6.9 mph - N/A   Overcast
4:16 AM 37.4 °F 34.9 °F 35.6 °F 93% 29.75 in 10.0 mi SE 3.5 mph - N/A   Overcast
4:36 AM 37.4 °F 33.8 °F 35.6 °F 93% 29.75 in 10.0 mi SE 4.6 mph - N/A   Overcast
4:56 AM 37.4 °F 33.8 °F 35.6 °F 93% 29.74 in 10.0 mi South 4.6 mph - N/A   Overcast
5:16 AM 37.4 °F 32.8 °F 35.6 °F 93% 29.74 in 10.0 mi ESE 5.8 mph - N/A   Overcast
5:36 AM 37.4 °F - 35.6 °F 93% 29.74 in 9.0 mi Calm Calm - N/A   Overcast
5:56 AM 37.4 °F 33.8 °F 35.6 °F 93% 29.74 in 10.0 mi SE 4.6 mph - N/A   Overcast
6:16 AM 37.4 °F 32.8 °F 35.6 °F 93% 29.74 in 10.0 mi East 5.8 mph - N/A   Overcast
6:36 AM 37.4 °F 32.8 °F 35.6 °F 93% 29.74 in 10.0 mi ESE 5.8 mph - N/A   Overcast
6:56 AM 37.4 °F 34.9 °F 35.6 °F 93% 29.73 in 9.0 mi SE 3.5 mph - N/A   Overcast
7:16 AM 37.4 °F 34.9 °F 35.6 °F 93% 29.73 in 9.0 mi SSE 3.5 mph - N/A   Overcast
7:36 AM 37.4 °F 32.8 °F 35.6 °F 93% 29.73 in 10.0 mi ESE 5.8 mph - N/A   Overcast
7:56 AM 37.4 °F 33.8 °F 35.6 °F 93% 29.73 in 10.0 mi SE 4.6 mph - N/A   Overcast
8:16 AM 37.4 °F 33.8 °F 35.6 °F 93% 29.74 in 7.0 mi ESE 4.6 mph - N/A   Overcast
8:36 AM 37.4 °F 33.8 °F 35.6 °F 93% 29.74 in 6.0 mi SE 4.6 mph - N/A   Overcast
8:56 AM 37.4 °F 32.8 °F 35.6 °F 93% 29.75 in 8.0 mi SE 5.8 mph - N/A   Overcast
9:16 AM 37.4 °F 32.8 °F 35.6 °F 93% 29.75 in 10.0 mi SE 5.8 mph - N/A   Overcast
9:36 AM 37.4 °F 32.1 °F 35.6 °F 93% 29.74 in 10.0 mi ESE 6.9 mph - N/A   Overcast
9:56 AM 37.4 °F 32.8 °F 35.6 °F 93% 29.74 in 9.0 mi SE 5.8 mph - N/A   Overcast
10:16 AM 37.4 °F 32.8 °F 35.6 °F 93% 29.75 in 7.0 mi SE 5.8 mph - N/A   Overcast
10:36 AM 37.4 °F 33.8 °F 35.6 °F 93% 29.75 in 5.0 mi SSE 4.6 mph - N/A   Overcast
10:56 AM 37.4 °F 30.8 °F 35.6 °F 93% 29.76 in 8.0 mi SE 9.2 mph 16.1 mph N/A   Mostly Cloudy
11:16 AM 37.4 °F 32.1 °F 35.6 °F 93% 29.77 in 7.0 mi ESE 6.9 mph - N/A   Overcast
11:36 AM 37.4 °F 33.8 °F 35.6 °F 93% 29.77 in 10.0 mi SE 4.6 mph 19.6 mph N/A   Overcast
11:56 AM 37.4 °F 31.4 °F 37.4 °F 100% 29.77 in 7.0 mi SE 8.1 mph - N/A   Overcast
12:16 PM 37.4 °F 30.8 °F 37.4 °F 100% 29.76 in 7.0 mi SE 9.2 mph - N/A   Overcast
12:56 PM 39.2 °F 33.6 °F 37.4 °F 93% 29.76 in 10.0 mi SE 8.1 mph 17.3 mph N/A   Overcast
1:16 PM 39.2 °F 34.2 °F 37.4 °F 93% 29.76 in 10.0 mi East 6.9 mph - N/A   Overcast
1:36 PM 39.2 °F 35.9 °F 37.4 °F 93% 29.77 in 7.0 mi ESE 4.6 mph 19.6 mph N/A   Overcast
1:56 PM 39.2 °F - 37.4 °F 93% 29.76 in 9.0 mi Calm Calm - N/A   Overcast
2:16 PM 39.2 °F 35.0 °F 37.4 °F 93% 29.75 in 9.0 mi East 5.8 mph - N/A   Overcast
2:36 PM 39.2 °F 34.2 °F 37.4 °F 93% 29.75 in 9.0 mi ENE 6.9 mph - N/A   Overcast
2:56 PM 39.2 °F 35.0 °F 37.4 °F 93% 29.76 in 9.0 mi ESE 5.8 mph - N/A   Overcast
3:16 PM 39.2 °F 34.2 °F 37.4 °F 93% 29.76 in 9.0 mi SE 6.9 mph - N/A   Overcast
3:36 PM 39.2 °F 35.0 °F 37.4 °F 93% 29.76 in 9.0 mi SE 5.8 mph - N/A   Overcast
3:56 PM 39.2 °F 35.0 °F 37.4 °F 93% 29.75 in 10.0 mi ESE 5.8 mph - N/A   Overcast
4:16 PM 39.2 °F 34.2 °F 37.4 °F 93% 29.75 in 10.0 mi ESE 6.9 mph - N/A   Overcast
4:36 PM 39.2 °F 35.9 °F 37.4 °F 93% 29.74 in 10.0 mi ENE 4.6 mph - N/A   Overcast
4:56 PM 39.2 °F 35.9 °F 37.4 °F 93% 29.74 in 8.0 mi East 4.6 mph - N/A   Overcast
5:16 PM 39.2 °F 35.9 °F 37.4 °F 93% 29.74 in 8.0 mi East 4.6 mph - N/A   Overcast
5:36 PM 39.2 °F 35.9 °F 37.4 °F 93% 29.73 in 8.0 mi ENE 4.6 mph - N/A   Overcast
5:56 PM 39.2 °F 35.0 °F 37.4 °F 93% 29.73 in 2.0 mi East 5.8 mph - N/A   Overcast
6:16 PM 39.2 °F 35.0 °F 37.4 °F 93% 29.73 in 4.0 mi East 5.8 mph - N/A   Overcast
6:36 PM 39.2 °F 33.6 °F 37.4 °F 93% 29.73 in 6.0 mi ESE 8.1 mph - N/A   Overcast
6:56 PM 39.2 °F 33.6 °F 37.4 °F 93% 29.72 in 6.0 mi East 8.1 mph - N/A   Overcast
7:16 PM 39.2 °F 35.9 °F 37.4 °F 93% 29.71 in 6.0 mi NE 4.6 mph 16.1 mph N/A   Overcast
7:36 PM 39.2 °F 34.2 °F 37.4 °F 93% 29.71 in 6.0 mi East 6.9 mph - N/A   Overcast
7:56 PM 39.2 °F 34.2 °F 37.4 °F 93% 29.70 in 6.0 mi East 6.9 mph - N/A   Overcast
8:16 PM 39.2 °F - 37.4 °F 93% 29.70 in 5.0 mi Calm Calm - N/A   Overcast
8:36 PM 39.2 °F 33.6 °F 37.4 °F 93% 29.70 in 5.0 mi East 8.1 mph - N/A   Overcast
8:56 PM 39.2 °F 33.6 °F 37.4 °F 93% 29.71 in 4.0 mi ENE 8.1 mph - N/A   Overcast
9:16 PM 39.2 °F 35.9 °F 37.4 °F 93% 29.70 in 7.0 mi East 4.6 mph 23.0 mph N/A   Overcast
9:36 PM 39.2 °F 35.0 °F 37.4 °F 93% 29.70 in 8.0 mi ENE 5.8 mph 18.4 mph N/A   Overcast
9:56 PM 39.2 °F 34.2 °F 37.4 °F 93% 29.69 in 8.0 mi East 6.9 mph 17.3 mph N/A   Overcast
10:16 PM 39.2 °F 35.9 °F 37.4 °F 93% 29.69 in 10.0 mi ENE 4.6 mph 17.3 mph N/A   Overcast
10:36 PM 39.2 °F 35.0 °F 37.4 °F 93% 29.69 in 9.0 mi NE 5.8 mph - N/A   Overcast
10:56 PM 39.2 °F 33.0 °F 37.4 °F 93% 29.69 in 10.0 mi ENE 9.2 mph 16.1 mph N/A   Overcast
11:16 PM 39.2 °F 33.0 °F 37.4 °F 93% 29.69 in 8.0 mi ENE 9.2 mph 20.7 mph N/A   Overcast
11:36 PM 39.2 °F 32.5 °F 37.4 °F 93% 29.69 in 10.0 mi NE 10.4 mph 18.4 mph N/A   Overcast
11:56 PM 39.2 °F 35.9 °F 37.4 °F 93% 29.69 in 10.0 mi ENE 4.6 mph 17.3 mph N/A   Overcast